createdAt,value
2023-04-28T00:00:00.683Z,7
2023-04-28T00:01:05.528Z,7
2023-04-28T00:02:02.131Z,7
2023-04-28T00:03:01.603Z,7
2023-04-28T00:04:01.470Z,7
2023-04-28T00:05:01.464Z,6.9
2023-04-28T00:06:09.078Z,7
2023-04-28T00:07:01.169Z,6.9
2023-04-28T00:08:01.162Z,6.9
2023-04-28T00:09:01.132Z,6.9
2023-04-28T00:10:01.413Z,6.9
2023-04-28T00:11:12.586Z,6.9
2023-04-28T00:12:01.866Z,6.9
2023-04-28T00:13:01.718Z,6.9
2023-04-28T00:14:01.146Z,6.9
2023-04-28T00:15:01.066Z,6.9
2023-04-28T00:16:15.574Z,7
2023-04-28T00:17:01.682Z,6.9
2023-04-28T00:18:01.537Z,7
2023-04-28T00:19:01.499Z,6.9
2023-04-28T00:20:01.084Z,6.9
2023-04-28T00:21:01.086Z,6.9
2023-04-28T00:22:01.107Z,6.9
2023-04-28T00:23:01.125Z,6.9
2023-04-28T00:24:01.107Z,7
2023-04-28T00:25:01.121Z,7
2023-04-28T00:26:01.137Z,7
2023-04-28T00:27:01.475Z,7
2023-04-28T00:28:01.332Z,6.9
2023-04-28T00:29:02.255Z,6.8
2023-04-28T00:30:01.046Z,6.8
2023-04-28T00:31:01.275Z,6.8
2023-04-28T00:32:01.124Z,6.8
2023-04-28T00:33:01.104Z,6.8
2023-04-28T00:34:01.068Z,6.8
2023-04-28T00:35:01.077Z,6.8
2023-04-28T00:36:01.262Z,6.8
2023-04-28T00:37:01.126Z,6.8
2023-04-28T00:38:01.113Z,6.8
2023-04-28T00:39:01.003Z,6.8
2023-04-28T00:40:01.354Z,6.8
2023-04-28T00:41:01.447Z,6.9
2023-04-28T00:42:01.134Z,6.9
2023-04-28T00:43:01.052Z,6.9
2023-04-28T00:44:01.032Z,6.8
2023-04-28T00:45:01.036Z,6.8
2023-04-28T00:46:01.085Z,6.8
2023-04-28T00:47:01.257Z,6.8
2023-04-28T00:48:01.118Z,6.8
2023-04-28T00:49:01.688Z,6.8
2023-04-28T00:50:01.524Z,6.8
2023-04-28T00:51:01.475Z,6.8
2023-04-28T00:52:01.093Z,6.8
2023-04-28T00:53:01.111Z,6.8
2023-04-28T00:54:03.826Z,6.8
2023-04-28T00:55:01.137Z,6.8
2023-04-28T00:56:01.504Z,6.8
2023-04-28T00:57:01.590Z,6.8
2023-04-28T00:58:01.493Z,6.8
2023-04-28T00:59:01.128Z,6.8
2023-04-28T01:00:01.369Z,6.8
2023-04-28T01:01:01.110Z,6.8
2023-04-28T01:02:01.073Z,6.7
2023-04-28T01:03:01.598Z,6.7
2023-04-28T01:04:01.255Z,6.8
2023-04-28T01:05:01.077Z,6.8
2023-04-28T01:06:01.081Z,6.8
2023-04-28T01:07:02.194Z,6.8
2023-04-28T01:08:01.225Z,6.8
2023-04-28T01:09:01.028Z,6.8
2023-04-28T01:10:01.442Z,6.8
2023-04-28T01:11:01.126Z,6.8
2023-04-28T01:12:01.140Z,6.8
2023-04-28T01:13:01.131Z,6.8
2023-04-28T01:14:01.134Z,6.8
2023-04-28T01:15:01.979Z,6.8
2023-04-28T01:16:02.045Z,6.8
2023-04-28T01:17:01.257Z,6.8
2023-04-28T01:18:01.758Z,6.8
2023-04-28T01:19:01.239Z,6.8
2023-04-28T01:20:04.722Z,6.7
2023-04-28T01:21:02.001Z,6.7
2023-04-28T01:22:01.855Z,6.6
2023-04-28T01:23:01.055Z,6.7
2023-04-28T01:24:01.139Z,6.7
2023-04-28T01:25:07.933Z,6.7
2023-04-28T01:26:01.512Z,6.7
2023-04-28T01:27:01.391Z,6.7
2023-04-28T01:28:01.331Z,6.6
2023-04-28T01:29:02.015Z,6.6
2023-04-28T01:30:01.118Z,6.6
2023-04-28T01:31:01.128Z,6.6
2023-04-28T01:32:01.489Z,6.6
2023-04-28T01:33:01.124Z,6.6
2023-04-28T01:34:01.032Z,6.5
2023-04-28T01:35:01.053Z,6.5
2023-04-28T01:36:01.071Z,6.5
2023-04-28T01:37:01.343Z,6.5
2023-04-28T01:38:02.090Z,6.5
2023-04-28T01:39:00.905Z,6.6
2023-04-28T01:40:01.118Z,6.6
2023-04-28T01:41:01.083Z,6.6
2023-04-28T01:42:01.621Z,6.6
2023-04-28T01:43:01.015Z,6.5
2023-04-28T01:44:01.021Z,6.5
2023-04-28T01:45:01.108Z,6.6
2023-04-28T01:46:01.175Z,6.6
2023-04-28T01:47:05.849Z,6.5
2023-04-28T01:48:01.527Z,6.6
2023-04-28T01:49:01.425Z,6.6
2023-04-28T01:50:01.849Z,6.6
2023-04-28T01:51:01.047Z,6.6
2023-04-28T01:52:09.203Z,6.6
2023-04-28T01:53:01.072Z,6.6
2023-04-28T01:54:01.031Z,6.6
2023-04-28T01:55:01.033Z,6.6
2023-04-28T01:56:01.524Z,6.5
2023-04-28T01:57:12.947Z,6.5
2023-04-28T01:58:04.463Z,6.5
2023-04-28T01:59:01.817Z,6.5
2023-04-28T02:00:02.435Z,6.5
2023-04-28T02:01:01.425Z,6.5
2023-04-28T02:02:15.021Z,6.5
2023-04-28T02:03:01.807Z,6.5
2023-04-28T02:04:01.346Z,6.4
2023-04-28T02:05:01.441Z,6.4
2023-04-28T02:06:01.047Z,6.4
2023-04-28T02:07:01.436Z,6.4
2023-04-28T02:08:01.172Z,6.4
2023-04-28T02:09:01.396Z,6.4
2023-04-28T02:10:01.477Z,6.4
2023-04-28T02:11:01.453Z,6.3
2023-04-28T02:12:00.773Z,6.3
2023-04-28T02:13:00.475Z,6.3
2023-04-28T02:14:00.190Z,6.3
2023-04-28T02:14:59.858Z,6.3
2023-04-28T02:16:01.554Z,6.3
2023-04-28T02:17:01.109Z,6.3
2023-04-28T02:18:01.152Z,6.3
2023-04-28T02:19:01.307Z,6.2
2023-04-28T02:20:02.168Z,6.2
2023-04-28T02:21:02.179Z,6.2
2023-04-28T02:22:01.057Z,6.2
2023-04-28T02:23:01.058Z,6.1
2023-04-28T02:24:01.324Z,6.1
2023-04-28T02:25:01.115Z,6.1
2023-04-28T02:26:01.080Z,6.1
2023-04-28T02:27:01.019Z,6.1
2023-04-28T02:28:01.396Z,6.1
2023-04-28T02:29:01.097Z,6.1
2023-04-28T02:30:01.114Z,6.1
2023-04-28T02:31:01.130Z,6.1
2023-04-28T02:32:01.210Z,6.1
2023-04-28T02:33:01.924Z,6.1
2023-04-28T02:34:01.131Z,6.1
2023-04-28T02:35:01.220Z,6.1
2023-04-28T02:36:01.222Z,6.1
2023-04-28T02:37:01.240Z,6.1
2023-04-28T02:38:01.020Z,6.1
2023-04-28T02:39:01.049Z,6.1
2023-04-28T02:40:01.069Z,6.1
2023-04-28T02:41:04.337Z,6.1
2023-04-28T02:42:01.757Z,6.1
2023-04-28T02:43:01.061Z,6.1
2023-04-28T02:44:01.079Z,6.1
2023-04-28T02:45:01.094Z,6.1
2023-04-28T02:46:01.086Z,6.1
2023-04-28T02:47:00.716Z,6.1
2023-04-28T02:48:00.421Z,6.1
2023-04-28T02:49:00.170Z,6.1
2023-04-28T02:49:59.774Z,6.1
2023-04-28T02:51:01.419Z,6.1
2023-04-28T02:52:01.123Z,6.1
2023-04-28T02:53:01.042Z,6.1
2023-04-28T02:54:01.810Z,6.1
2023-04-28T02:55:01.246Z,6.1
2023-04-28T02:56:01.230Z,6.1
2023-04-28T02:57:01.406Z,6.1
2023-04-28T02:58:01.066Z,6.1
2023-04-28T02:59:01.023Z,6.1
2023-04-28T03:00:01.012Z,6.1
2023-04-28T03:01:01.114Z,6.1
2023-04-28T03:02:01.100Z,6.1
2023-04-28T03:03:01.396Z,6.1
2023-04-28T03:04:04.124Z,6
2023-04-28T03:05:01.280Z,6
2023-04-28T03:06:04.175Z,6
2023-04-28T03:07:01.142Z,6
2023-04-28T03:08:01.022Z,6
2023-04-28T03:09:01.031Z,5.9
2023-04-28T03:10:01.068Z,5.9
2023-04-28T03:11:01.065Z,5.9
2023-04-28T03:12:01.053Z,5.9
2023-04-28T03:13:01.173Z,5.8
2023-04-28T03:14:01.762Z,5.8
2023-04-28T03:15:01.024Z,5.8
2023-04-28T03:16:01.724Z,5.8
2023-04-28T03:17:01.961Z,5.8
2023-04-28T03:18:01.319Z,5.8
2023-04-28T03:19:00.927Z,5.8
2023-04-28T03:20:01.108Z,5.8
2023-04-28T03:21:01.102Z,5.8
2023-04-28T03:22:01.126Z,5.8
2023-04-28T03:23:01.809Z,5.8
2023-04-28T03:24:03.502Z,5.8
2023-04-28T03:25:01.627Z,5.8
2023-04-28T03:26:01.102Z,5.8
2023-04-28T03:27:01.047Z,5.8
2023-04-28T03:28:04.401Z,5.8
2023-04-28T03:29:01.057Z,5.8
2023-04-28T03:30:01.052Z,5.8
2023-04-28T03:31:01.095Z,5.7
2023-04-28T03:32:01.128Z,5.7
2023-04-28T03:33:06.908Z,5.7
2023-04-28T03:34:01.728Z,5.7
2023-04-28T03:35:01.103Z,5.7
2023-04-28T03:36:01.105Z,5.7
2023-04-28T03:37:01.111Z,5.7
2023-04-28T03:38:08.799Z,5.7
2023-04-28T03:39:01.117Z,5.7
2023-04-28T03:40:01.022Z,5.6
2023-04-28T03:41:01.047Z,5.6
2023-04-28T03:42:01.044Z,5.6
2023-04-28T03:43:11.398Z,5.6
2023-04-28T03:44:00.734Z,5.6
2023-04-28T03:45:00.333Z,5.6
2023-04-28T03:46:00.016Z,5.6
2023-04-28T03:46:59.666Z,5.6
2023-04-28T03:48:14.270Z,5.6
2023-04-28T03:49:01.760Z,5.6
2023-04-28T03:50:02.518Z,5.6
2023-04-28T03:51:01.386Z,5.6
2023-04-28T03:52:01.100Z,5.6
2023-04-28T03:53:16.598Z,5.6
2023-04-28T03:54:01.602Z,5.6
2023-04-28T03:55:01.794Z,5.6
2023-04-28T03:56:01.176Z,5.6
2023-04-28T03:57:01.026Z,5.6
2023-04-28T03:58:01.037Z,5.6
2023-04-28T03:59:01.043Z,5.6
2023-04-28T04:00:01.376Z,5.6
2023-04-28T04:01:01.082Z,5.6
2023-04-28T04:02:01.498Z,5.6
2023-04-28T04:03:01.307Z,5.6
2023-04-28T04:04:01.382Z,5.6
2023-04-28T04:05:01.362Z,5.6
2023-04-28T04:06:01.553Z,5.6
2023-04-28T04:07:02.319Z,5.6
2023-04-28T04:08:01.106Z,5.6
2023-04-28T04:09:01.499Z,5.7
2023-04-28T04:10:03.896Z,5.7
2023-04-28T04:11:01.155Z,5.8
2023-04-28T04:12:01.044Z,5.8
2023-04-28T04:13:01.030Z,5.8
2023-04-28T04:14:01.040Z,5.7
2023-04-28T04:15:01.040Z,5.8
2023-04-28T04:16:01.114Z,5.7
2023-04-28T04:17:01.376Z,5.8
2023-04-28T04:18:01.126Z,5.8
2023-04-28T04:19:01.079Z,5.8
2023-04-28T04:20:01.198Z,5.8
2023-04-28T04:21:01.086Z,5.8
2023-04-28T04:22:01.093Z,5.8
2023-04-28T04:23:01.142Z,5.7
2023-04-28T04:24:01.291Z,5.7
2023-04-28T04:25:01.126Z,5.7
2023-04-28T04:26:00.812Z,5.7
2023-04-28T04:27:00.433Z,5.8
2023-04-28T04:28:00.020Z,5.8
2023-04-28T04:28:59.743Z,5.8
2023-04-28T04:30:01.765Z,5.8
2023-04-28T04:31:01.773Z,5.8
2023-04-28T04:32:01.736Z,5.8
2023-04-28T04:33:01.077Z,5.8
2023-04-28T04:34:01.052Z,5.8
2023-04-28T04:35:00.664Z,5.8
2023-04-28T04:36:00.538Z,5.9
2023-04-28T04:37:00.378Z,5.9
2023-04-28T04:38:00.098Z,6
2023-04-28T04:38:59.747Z,6
2023-04-28T04:40:01.440Z,6
2023-04-28T04:41:01.672Z,6.1
2023-04-28T04:42:13.369Z,6.1
2023-04-28T04:43:01.709Z,6.1
2023-04-28T04:44:00.715Z,6.1
2023-04-28T04:45:00.348Z,6.2
2023-04-28T04:46:00.167Z,6.2
2023-04-28T04:46:59.936Z,6.2
2023-04-28T04:47:59.748Z,6.2
2023-04-28T04:49:02.108Z,6.3
2023-04-28T04:50:01.081Z,6.3
2023-04-28T04:51:01.085Z,6.3
2023-04-28T04:52:01.079Z,6.3
2023-04-28T04:53:01.074Z,6.3
2023-04-28T04:54:01.335Z,6.4
2023-04-28T04:55:01.400Z,6.5
2023-04-28T04:56:01.357Z,6.5
2023-04-28T04:57:01.101Z,6.5
2023-04-28T04:58:01.113Z,6.5
2023-04-28T04:59:01.123Z,6.5
2023-04-28T05:00:01.015Z,6.5
2023-04-28T05:01:01.304Z,6.5
2023-04-28T05:02:01.997Z,6.5
2023-04-28T05:03:01.781Z,6.5
2023-04-28T05:04:01.038Z,6.6
2023-04-28T05:05:12.458Z,6.6
2023-04-28T05:06:01.035Z,6.7
2023-04-28T05:07:01.004Z,6.8
2023-04-28T05:08:01.022Z,6.8
2023-04-28T05:09:01.019Z,6.8
2023-04-28T05:10:01.035Z,6.9
2023-04-28T05:11:01.102Z,7
2023-04-28T05:12:01.032Z,7
2023-04-28T05:13:01.036Z,7.1
2023-04-28T05:14:01.353Z,7.1
2023-04-28T05:15:03.791Z,7.3
2023-04-28T05:16:01.975Z,7.3
2023-04-28T05:17:01.064Z,7.4
2023-04-28T05:18:01.117Z,7.5
2023-04-28T05:19:04.812Z,7.6
2023-04-28T05:20:01.172Z,7.6
2023-04-28T05:21:01.331Z,7.6
2023-04-28T05:22:02.432Z,7.6
2023-04-28T05:23:02.463Z,7.6
2023-04-28T05:24:06.759Z,7.6
2023-04-28T05:25:01.169Z,7.6
2023-04-28T05:26:01.083Z,7.7
2023-04-28T05:27:01.190Z,7.8
2023-04-28T05:28:01.216Z,7.8
2023-04-28T05:29:09.769Z,8
2023-04-28T05:30:01.352Z,8.1
2023-04-28T05:31:02.129Z,8.2
2023-04-28T05:32:01.582Z,8.3
2023-04-28T05:33:01.441Z,8.5
2023-04-28T05:34:13.131Z,8.6
2023-04-28T05:35:01.054Z,8.7
2023-04-28T05:36:01.203Z,8.8
2023-04-28T05:37:01.880Z,8.9
2023-04-28T05:38:01.067Z,9
2023-04-28T05:39:15.405Z,9.1
2023-04-28T05:40:00.772Z,9.3
2023-04-28T05:41:00.355Z,9.4
2023-04-28T05:41:59.937Z,9.4
2023-04-28T05:42:59.596Z,9.4
2023-04-28T05:44:01.330Z,9.3
2023-04-28T05:45:02.020Z,9.3
2023-04-28T05:46:09.724Z,9.3
2023-04-28T05:47:01.351Z,9.4
2023-04-28T05:48:01.157Z,9.4
2023-04-28T05:49:01.863Z,9.5
2023-04-28T05:50:02.390Z,9.6
2023-04-28T05:51:01.079Z,9.6
2023-04-28T05:52:01.064Z,9.6
2023-04-28T05:53:01.046Z,9.6
2023-04-28T05:54:01.053Z,9.8
2023-04-28T05:55:01.072Z,10
2023-04-28T05:56:01.090Z,10.1
2023-04-28T05:57:01.591Z,10.3
2023-04-28T05:58:01.088Z,10.3
2023-04-28T05:59:01.402Z,10.5
2023-04-28T06:00:01.127Z,10.6
2023-04-28T06:01:01.101Z,10.7
2023-04-28T06:02:01.123Z,10.7
2023-04-28T06:03:01.252Z,10.7
2023-04-28T06:04:01.563Z,10.7
2023-04-28T06:05:02.436Z,10.7
2023-04-28T06:06:01.389Z,10.8
2023-04-28T06:07:01.861Z,10.8
2023-04-28T06:08:01.040Z,10.8
2023-04-28T06:09:01.088Z,10.9
2023-04-28T06:10:01.195Z,11
2023-04-28T06:11:01.611Z,10.8
2023-04-28T06:12:01.418Z,10.7
2023-04-28T06:13:01.184Z,10.6
2023-04-28T06:14:01.024Z,10.6
2023-04-28T06:15:01.100Z,10.5
2023-04-28T06:16:01.085Z,10.5
2023-04-28T06:17:00.783Z,10.2
2023-04-28T06:18:01.167Z,10
2023-04-28T06:19:01.340Z,9.8
2023-04-28T06:20:01.124Z,9.8
2023-04-28T06:21:03.897Z,9.7
2023-04-28T06:22:02.207Z,9.7
2023-04-28T06:23:00.837Z,9.7
2023-04-28T06:24:00.421Z,9.7
2023-04-28T06:25:00.074Z,9.8
2023-04-28T06:25:59.725Z,9.7
2023-04-28T06:27:01.473Z,9.8
2023-04-28T06:28:01.448Z,9.8
2023-04-28T06:29:01.456Z,9.8
2023-04-28T06:30:02.190Z,9.8
2023-04-28T06:31:01.330Z,9.9
2023-04-28T06:32:01.130Z,10
2023-04-28T06:33:01.139Z,10
2023-04-28T06:34:02.106Z,10
2023-04-28T06:35:01.228Z,10.1
2023-04-28T06:36:01.558Z,10.1
2023-04-28T06:37:01.280Z,10.1
2023-04-28T06:38:00.742Z,10
2023-04-28T06:39:00.311Z,10.1
2023-04-28T06:39:59.858Z,10.1
2023-04-28T06:40:59.503Z,10.1
2023-04-28T06:42:01.115Z,10.2
2023-04-28T06:43:01.172Z,10.3
2023-04-28T06:44:01.328Z,10.3
2023-04-28T06:45:00.994Z,10.3
2023-04-28T06:46:01.486Z,10.4
2023-04-28T06:47:01.136Z,10.5
2023-04-28T06:48:01.099Z,10.5
2023-04-28T06:49:01.114Z,10.5
2023-04-28T06:50:01.025Z,10.4
2023-04-28T06:51:00.702Z,10.4
2023-04-28T06:52:00.258Z,10.5
2023-04-28T06:53:00.103Z,10.5
2023-04-28T06:54:00.135Z,10.5
2023-04-28T06:54:59.790Z,10.5
2023-04-28T06:56:02.266Z,10.6
2023-04-28T06:57:01.063Z,10.6
2023-04-28T06:58:01.294Z,10.6
2023-04-28T06:59:01.068Z,10.7
2023-04-28T07:00:01.098Z,10.8
2023-04-28T07:01:01.391Z,10.8
2023-04-28T07:02:03.816Z,10.8
2023-04-28T07:03:01.444Z,10.9
2023-04-28T07:04:01.488Z,10.9
2023-04-28T07:05:01.859Z,11
2023-04-28T07:06:02.025Z,11
2023-04-28T07:07:01.129Z,11
2023-04-28T07:08:01.115Z,11
2023-04-28T07:09:01.141Z,11.1
2023-04-28T07:10:03.704Z,11.1
2023-04-28T07:11:01.052Z,11.1
2023-04-28T07:12:01.055Z,11.1
2023-04-28T07:13:01.112Z,11.2
2023-04-28T07:14:01.052Z,11.2
2023-04-28T07:15:06.615Z,11.3
2023-04-28T07:16:01.158Z,11.3
2023-04-28T07:17:01.087Z,11.4
2023-04-28T07:18:01.156Z,11.4
2023-04-28T07:19:01.128Z,11.5
2023-04-28T07:20:09.270Z,11.5
2023-04-28T07:21:03.334Z,11.5
2023-04-28T07:22:01.681Z,11.6
2023-04-28T07:23:01.020Z,11.6
2023-04-28T07:24:01.197Z,11.6
2023-04-28T07:25:10.695Z,11.6
2023-04-28T07:26:01.371Z,11.6
2023-04-28T07:27:01.044Z,11.6
2023-04-28T07:28:01.752Z,11.7
2023-04-28T07:29:01.282Z,11.8
2023-04-28T07:30:26.500Z,11.8
2023-04-28T07:31:02.102Z,11.8
2023-04-28T07:32:01.138Z,12
2023-04-28T07:33:01.137Z,12
2023-04-28T07:34:01.369Z,12.1
2023-04-28T07:35:16.911Z,12.1
2023-04-28T07:36:02.221Z,12.1
2023-04-28T07:37:01.095Z,12.2
2023-04-28T07:38:01.111Z,12.3
2023-04-28T07:39:01.112Z,12.3
2023-04-28T07:40:01.123Z,12.3
2023-04-28T07:41:01.131Z,12.3
2023-04-28T07:42:01.035Z,12.4
2023-04-28T07:43:01.029Z,12.5
2023-04-28T07:44:01.149Z,12.5
2023-04-28T07:45:00.712Z,12.4
2023-04-28T07:46:00.347Z,12.4
2023-04-28T07:46:59.929Z,12.4
2023-04-28T07:47:59.574Z,12.4
2023-04-28T07:49:01.733Z,12.3
2023-04-28T07:50:01.089Z,12.4
2023-04-28T07:51:01.137Z,12.5
2023-04-28T07:52:01.089Z,12.5
2023-04-28T07:53:01.098Z,12.5
2023-04-28T07:54:01.115Z,12.5
2023-04-28T07:55:01.508Z,12.6
2023-04-28T07:56:03.888Z,12.6
2023-04-28T07:57:01.841Z,12.6
2023-04-28T07:58:01.019Z,12.7
2023-04-28T07:59:01.092Z,12.8
2023-04-28T08:00:01.041Z,12.8
2023-04-28T08:01:01.051Z,12.8
2023-04-28T08:02:01.053Z,12.8
2023-04-28T08:03:01.197Z,12.8
2023-04-28T08:04:01.700Z,12.8
2023-04-28T08:05:02.196Z,12.7
2023-04-28T08:06:01.686Z,12.6
2023-04-28T08:07:01.076Z,12.7
2023-04-28T08:08:01.087Z,12.7
2023-04-28T08:09:01.090Z,12.8
2023-04-28T08:10:01.133Z,12.8
2023-04-28T08:11:01.128Z,12.8
2023-04-28T08:12:01.746Z,12.8
2023-04-28T08:13:01.142Z,12.8
2023-04-28T08:14:01.053Z,12.8
2023-04-28T08:15:01.023Z,12.8
2023-04-28T08:16:01.276Z,12.8
2023-04-28T08:17:01.426Z,12.8
2023-04-28T08:18:01.204Z,12.8
2023-04-28T08:19:02.287Z,12.8
2023-04-28T08:20:01.416Z,12.9
2023-04-28T08:21:01.977Z,13
2023-04-28T08:22:01.076Z,13
2023-04-28T08:23:01.399Z,13
2023-04-28T08:24:01.285Z,13
2023-04-28T08:25:00.986Z,13
2023-04-28T08:26:01.415Z,13
2023-04-28T08:27:01.108Z,13
2023-04-28T08:28:01.028Z,13
2023-04-28T08:29:01.027Z,13.1
2023-04-28T08:30:01.025Z,13.1
2023-04-28T08:31:01.265Z,13.1
2023-04-28T08:32:02.154Z,13.1
2023-04-28T08:33:02.110Z,13.1
2023-04-28T08:34:02.112Z,13.2
2023-04-28T08:35:00.856Z,13.3
2023-04-28T08:36:00.802Z,13.3
2023-04-28T08:37:01.060Z,13.3
2023-04-28T08:38:01.075Z,13.4
2023-04-28T08:39:01.120Z,13.5
2023-04-28T08:40:01.516Z,13.5
2023-04-28T08:41:01.538Z,13.5
2023-04-28T08:42:01.285Z,13.6
2023-04-28T08:43:01.102Z,13.6
2023-04-28T08:44:01.129Z,13.6
2023-04-28T08:45:00.748Z,13.6
2023-04-28T08:46:00.408Z,13.7
2023-04-28T08:47:00.112Z,13.7
2023-04-28T08:47:59.867Z,13.8
2023-04-28T08:48:59.778Z,13.8
2023-04-28T08:50:01.453Z,13.7
2023-04-28T08:51:02.658Z,13.6
2023-04-28T08:52:01.176Z,13.7
2023-04-28T08:53:01.074Z,13.7
2023-04-28T08:55:01.099Z,13.6
2023-04-28T08:56:01.111Z,13.6
2023-04-28T08:57:01.112Z,13.6
2023-04-28T08:58:01.106Z,13.7
2023-04-28T08:59:01.102Z,13.7
2023-04-28T09:00:01.135Z,13.8
2023-04-28T09:01:01.243Z,13.8
2023-04-28T09:02:01.203Z,13.8
2023-04-28T09:03:01.141Z,13.9
2023-04-28T09:04:01.254Z,14
2023-04-28T09:05:02.076Z,14
2023-04-28T09:06:05.456Z,14.1
2023-04-28T09:07:01.128Z,14.1
2023-04-28T09:08:01.113Z,14.1
2023-04-28T09:09:01.466Z,14.1
2023-04-28T09:10:01.186Z,14.2
2023-04-28T09:11:06.439Z,14.3
2023-04-28T09:12:02.199Z,14.3
2023-04-28T09:13:02.922Z,14.4
2023-04-28T09:14:01.120Z,14.5
2023-04-28T09:15:01.135Z,14.5
2023-04-28T09:16:09.478Z,14.5
2023-04-28T09:17:01.869Z,14.5
2023-04-28T09:18:01.054Z,14.5
2023-04-28T09:19:01.406Z,14.5
2023-04-28T09:20:01.137Z,14.5
2023-04-28T09:21:12.732Z,14.5
2023-04-28T09:22:05.683Z,14.5
2023-04-28T09:23:01.759Z,14.5
2023-04-28T09:24:01.183Z,14.6
2023-04-28T09:25:01.301Z,14.6
2023-04-28T09:26:15.458Z,14.6
2023-04-28T09:27:01.439Z,14.6
2023-04-28T09:28:01.486Z,14.6
2023-04-28T09:29:02.161Z,14.6
2023-04-28T09:30:01.095Z,14.6
2023-04-28T09:31:01.119Z,14.6
2023-04-28T09:32:01.166Z,14.7
2023-04-28T09:33:01.044Z,14.7
2023-04-28T09:34:01.020Z,14.7
2023-04-28T09:35:01.037Z,14.8
2023-04-28T09:36:01.028Z,14.8
2023-04-28T09:37:02.168Z,14.8
2023-04-28T09:38:01.448Z,14.9
2023-04-28T09:39:01.057Z,14.9
2023-04-28T09:40:01.068Z,14.9
2023-04-28T09:41:01.337Z,14.9
2023-04-28T09:42:02.101Z,15
2023-04-28T09:43:15.092Z,15
2023-04-28T09:44:01.094Z,15
2023-04-28T09:45:00.785Z,15
2023-04-28T09:46:00.514Z,15
2023-04-28T09:47:00.169Z,15
2023-04-28T09:47:59.866Z,15.1
2023-04-28T09:48:59.485Z,15.1
2023-04-28T09:50:01.050Z,15.1
2023-04-28T09:51:01.045Z,15.1
2023-04-28T09:52:01.017Z,15.1
2023-04-28T09:53:00.755Z,15.1
2023-04-28T09:54:00.443Z,15.2
2023-04-28T09:55:00.051Z,15.2
2023-04-28T09:55:59.632Z,15.3
2023-04-28T09:57:01.797Z,15.3
2023-04-28T09:58:01.761Z,15.3
2023-04-28T09:59:01.826Z,15.3
2023-04-28T10:00:01.380Z,15.3
2023-04-28T10:01:01.202Z,15.3
2023-04-28T10:02:08.919Z,15.3
2023-04-28T10:03:01.447Z,15.4
2023-04-28T10:04:02.660Z,15.5
2023-04-28T10:05:01.504Z,15.5
2023-04-28T10:06:01.541Z,15.5
2023-04-28T10:07:01.845Z,15.5
2023-04-28T10:08:01.728Z,15.5
2023-04-28T10:09:02.063Z,15.5
2023-04-28T10:10:02.179Z,15.5
2023-04-28T10:11:01.070Z,15.6
2023-04-28T10:12:01.190Z,15.6
2023-04-28T10:13:01.069Z,15.6
2023-04-28T10:14:01.113Z,15.6
2023-04-28T10:15:01.090Z,15.6
2023-04-28T10:16:01.161Z,15.6
2023-04-28T10:17:01.203Z,15.6
2023-04-28T10:18:01.139Z,15.7
2023-04-28T10:19:01.211Z,15.8
2023-04-28T10:20:01.130Z,15.8
2023-04-28T10:21:01.218Z,15.8
2023-04-28T10:22:01.035Z,15.8
2023-04-28T10:23:01.194Z,15.8
2023-04-28T10:24:01.066Z,15.9
2023-04-28T10:25:00.820Z,15.9
2023-04-28T10:26:00.465Z,16
2023-04-28T10:27:00.027Z,16
2023-04-28T10:27:59.609Z,16.1
2023-04-28T10:29:01.627Z,16.1
2023-04-28T10:30:01.126Z,16.1
2023-04-28T10:31:01.161Z,16.2
2023-04-28T10:32:01.243Z,16.2
2023-04-28T10:33:01.522Z,16.3
2023-04-28T10:34:01.025Z,16.3
2023-04-28T10:35:01.033Z,16.4
2023-04-28T10:36:01.036Z,16.4
2023-04-28T10:37:01.135Z,16.5
2023-04-28T10:38:01.066Z,16.5
2023-04-28T10:39:01.077Z,16.5
2023-04-28T10:40:01.076Z,16.5
2023-04-28T10:41:01.072Z,16.5
2023-04-28T10:42:01.454Z,16.5
2023-04-28T10:43:01.086Z,16.5
2023-04-28T10:44:01.222Z,16.5
2023-04-28T10:45:01.359Z,16.5
2023-04-28T10:46:01.344Z,16.5
2023-04-28T10:47:01.111Z,16.5
2023-04-28T10:48:01.110Z,16.6
2023-04-28T10:49:01.096Z,16.6
2023-04-28T10:50:01.122Z,16.6
2023-04-28T10:51:01.132Z,16.6
2023-04-28T10:52:01.287Z,16.7
2023-04-28T10:53:01.032Z,16.7
2023-04-28T10:54:01.660Z,16.8
2023-04-28T10:55:04.997Z,16.8
2023-04-28T10:56:01.759Z,16.8
2023-04-28T10:57:04.559Z,16.7
2023-04-28T10:58:01.733Z,16.7
2023-04-28T10:59:01.224Z,16.7
2023-04-28T11:00:01.460Z,16.7
2023-04-28T11:01:02.138Z,16.7
2023-04-28T11:02:08.736Z,16.8
2023-04-28T11:03:01.209Z,16.8
2023-04-28T11:04:02.367Z,16.8
2023-04-28T11:05:02.629Z,16.8
2023-04-28T11:06:01.319Z,16.8
2023-04-28T11:07:11.835Z,16.8
2023-04-28T11:08:01.136Z,16.9
2023-04-28T11:09:02.104Z,17
2023-04-28T11:10:03.785Z,17
2023-04-28T11:11:01.056Z,17
2023-04-28T11:12:14.448Z,17.1
2023-04-28T11:13:01.062Z,17.1
2023-04-28T11:14:01.764Z,17.1
2023-04-28T11:15:01.180Z,17.1
2023-04-28T11:16:03.915Z,17.1
2023-04-28T11:17:15.987Z,17.1
2023-04-28T11:18:04.090Z,17.2
2023-04-28T11:19:01.199Z,17.3
2023-04-28T11:20:01.091Z,17.3
2023-04-28T11:21:01.102Z,17.3
2023-04-28T11:22:01.103Z,17.3
2023-04-28T11:23:01.113Z,17.4
2023-04-28T11:24:00.735Z,17.4
2023-04-28T11:25:00.432Z,17.4
2023-04-28T11:26:00.175Z,17.4
2023-04-28T11:26:59.988Z,17.4
2023-04-28T11:27:59.607Z,17.4
2023-04-28T11:29:01.839Z,17.4
2023-04-28T11:30:02.222Z,17.5
2023-04-28T11:31:02.926Z,17.4
2023-04-28T11:32:02.131Z,17.4
2023-04-28T11:33:01.134Z,17.4
2023-04-28T11:34:01.988Z,17.4
2023-04-28T11:35:01.356Z,17.3
2023-04-28T11:36:01.465Z,17.3
2023-04-28T11:37:01.463Z,17.3
2023-04-28T11:38:01.010Z,17.3
2023-04-28T11:39:01.112Z,17.3
2023-04-28T11:40:01.116Z,17.3
2023-04-28T11:41:01.137Z,17.3
2023-04-28T11:42:02.004Z,17.3
2023-04-28T11:43:02.121Z,17.3
2023-04-28T11:44:00.641Z,17.2
2023-04-28T11:45:00.256Z,17.2
2023-04-28T11:45:59.957Z,17.1
2023-04-28T11:46:59.917Z,17.1
2023-04-28T11:47:59.747Z,17.1
2023-04-28T11:49:01.754Z,17.1
2023-04-28T11:50:01.111Z,17.1
2023-04-28T11:51:01.103Z,17.1
2023-04-28T11:52:01.350Z,17.1
2023-04-28T11:53:01.115Z,17.1
2023-04-28T11:54:01.834Z,17
2023-04-28T11:55:01.162Z,17
2023-04-28T11:56:01.375Z,17
2023-04-28T11:57:01.801Z,17
2023-04-28T11:58:02.299Z,17
2023-04-28T11:59:03.299Z,16.9
2023-04-28T12:00:02.708Z,16.9
2023-04-28T12:01:01.558Z,16.8
2023-04-28T12:02:01.828Z,16.8
2023-04-28T12:03:02.055Z,16.8
2023-04-28T12:04:00.717Z,16.8
2023-04-28T12:05:00.474Z,16.8
2023-04-28T12:06:00.091Z,16.8
2023-04-28T12:06:59.681Z,16.8
2023-04-28T12:08:01.301Z,16.8
2023-04-28T12:09:02.332Z,16.7
2023-04-28T12:10:01.014Z,16.7
2023-04-28T12:11:01.130Z,16.7
2023-04-28T12:12:01.121Z,16.7
2023-04-28T12:13:02.030Z,16.7
2023-04-28T12:14:01.413Z,16.7
2023-04-28T12:15:01.041Z,16.8
2023-04-28T12:16:01.077Z,16.8
2023-04-28T12:17:01.040Z,16.8
2023-04-28T12:18:01.087Z,16.8
2023-04-28T12:19:01.068Z,16.8
2023-04-28T12:20:01.068Z,16.9
2023-04-28T12:21:01.090Z,16.9
2023-04-28T12:22:01.018Z,16.9
2023-04-28T12:23:01.317Z,17
2023-04-28T12:24:00.901Z,17
2023-04-28T12:25:01.278Z,17
2023-04-28T12:26:01.412Z,17
2023-04-28T12:27:01.112Z,17
2023-04-28T12:28:01.168Z,17
2023-04-28T12:29:01.032Z,17
2023-04-28T12:30:01.029Z,17
2023-04-28T12:31:01.049Z,17
2023-04-28T12:32:01.059Z,17.1
2023-04-28T12:33:01.461Z,17.1
2023-04-28T12:34:01.018Z,17.1
2023-04-28T12:35:03.725Z,17.1
2023-04-28T12:36:01.080Z,17.1
2023-04-28T12:37:01.781Z,17.1
2023-04-28T12:38:01.761Z,17
2023-04-28T12:39:01.390Z,17
2023-04-28T12:40:02.526Z,17
2023-04-28T12:41:02.553Z,17
2023-04-28T12:42:01.503Z,17
2023-04-28T12:43:02.649Z,17
2023-04-28T12:44:01.237Z,17
2023-04-28T12:45:02.653Z,17.1
2023-04-28T12:46:01.062Z,17
2023-04-28T12:47:01.068Z,17
2023-04-28T12:48:05.173Z,17
2023-04-28T12:49:01.174Z,17
2023-04-28T12:50:04.659Z,17.1
2023-04-28T12:51:01.483Z,17.1
2023-04-28T12:52:02.189Z,17.1
2023-04-28T12:53:07.908Z,17.1
2023-04-28T12:54:01.422Z,17.1
2023-04-28T12:55:01.099Z,17.1
2023-04-28T12:56:01.103Z,17.1
2023-04-28T12:57:01.139Z,17.1
2023-04-28T12:58:10.906Z,17.1
2023-04-28T12:59:01.772Z,17.1
2023-04-28T13:00:01.010Z,17.1
2023-04-28T13:01:01.063Z,17.1
2023-04-28T13:02:01.101Z,17.2
2023-04-28T13:03:14.652Z,17.2
2023-04-28T13:04:01.298Z,17.1
2023-04-28T13:05:02.156Z,17.1
2023-04-28T13:06:01.096Z,17.1
2023-04-28T13:07:01.067Z,17.1
2023-04-28T13:08:16.810Z,17
2023-04-28T13:09:01.087Z,17
2023-04-28T13:10:01.035Z,17
2023-04-28T13:11:02.999Z,17
2023-04-28T13:12:01.129Z,17
2023-04-28T13:13:01.113Z,16.9
2023-04-28T13:14:01.516Z,16.9
2023-04-28T13:15:01.827Z,16.9
2023-04-28T13:16:01.405Z,16.8
2023-04-28T13:17:01.406Z,16.8
2023-04-28T13:18:01.800Z,16.8
2023-04-28T13:19:02.515Z,16.7
2023-04-28T13:20:01.410Z,16.7
2023-04-28T13:21:01.073Z,16.6
2023-04-28T13:22:01.078Z,16.6
2023-04-28T13:23:01.080Z,16.6
2023-04-28T13:24:00.876Z,16.6
2023-04-28T13:25:01.125Z,16.5
2023-04-28T13:26:01.235Z,16.5
2023-04-28T13:27:02.499Z,16.5
2023-04-28T13:28:01.958Z,16.5
2023-04-28T13:29:01.059Z,16.4
2023-04-28T13:30:01.142Z,16.4
2023-04-28T13:31:01.947Z,16.4
2023-04-28T13:32:01.795Z,16.3
2023-04-28T13:33:02.616Z,16.3
2023-04-28T13:34:01.064Z,16.3
2023-04-28T13:35:01.077Z,16.2
2023-04-28T13:36:01.404Z,16.2
2023-04-28T13:37:01.100Z,16.1